sensor_id;sensor_type;location;lat;lon;timestamp;temperature;humidity
46364;DHT22;32071;49.036;9.344;2024-01-30T00:00:43;1.00;99.90
46364;DHT22;32071;49.036;9.344;2024-01-30T00:03:09;1.00;99.90
46364;DHT22;32071;49.036;9.344;2024-01-30T00:05:34;1.00;99.90
46364;DHT22;32071;49.036;9.344;2024-01-30T00:08:00;1.00;99.90
46364;DHT22;32071;49.036;9.344;2024-01-30T00:10:25;1.00;99.90
46364;DHT22;32071;49.036;9.344;2024-01-30T00:12:51;1.00;99.90
46364;DHT22;32071;49.036;9.344;2024-01-30T00:15:16;1.00;99.90
46364;DHT22;32071;49.036;9.344;2024-01-30T00:17:42;1.10;99.90
46364;DHT22;32071;49.036;9.344;2024-01-30T00:20:07;1.10;99.90
46364;DHT22;32071;49.036;9.344;2024-01-30T00:22:34;1.10;99.90
46364;DHT22;32071;49.036;9.344;2024-01-30T00:25:00;1.20;99.90
46364;DHT22;32071;49.036;9.344;2024-01-30T00:27:26;1.20;99.90
46364;DHT22;32071;49.036;9.344;2024-01-30T00:29:53;1.20;99.90
46364;DHT22;32071;49.036;9.344;2024-01-30T00:32:18;1.10;99.90
46364;DHT22;32071;49.036;9.344;2024-01-30T00:34:44;1.10;99.90
46364;DHT22;32071;49.036;9.344;2024-01-30T00:37:10;1.10;99.90
46364;DHT22;32071;49.036;9.344;2024-01-30T00:39:36;1.00;99.90
46364;DHT22;32071;49.036;9.344;2024-01-30T00:42:01;0.90;99.90
46364;DHT22;32071;49.036;9.344;2024-01-30T00:44:27;0.90;99.90
46364;DHT22;32071;49.036;9.344;2024-01-30T00:46:53;0.90;99.90
46364;DHT22;32071;49.036;9.344;2024-01-30T00:49:19;0.80;99.90
46364;DHT22;32071;49.036;9.344;2024-01-30T00:51:44;0.80;99.90
46364;DHT22;32071;49.036;9.344;2024-01-30T00:54:10;0.80;99.90
46364;DHT22;32071;49.036;9.344;2024-01-30T00:56:35;0.80;99.90
46364;DHT22;32071;49.036;9.344;2024-01-30T00:59:01;0.80;99.90
46364;DHT22;32071;49.036;9.344;2024-01-30T01:01:26;0.80;99.90
46364;DHT22;32071;49.036;9.344;2024-01-30T01:03:52;0.80;99.90
46364;DHT22;32071;49.036;9.344;2024-01-30T01:06:17;0.80;99.90
46364;DHT22;32071;49.036;9.344;2024-01-30T01:08:43;0.80;99.90
46364;DHT22;32071;49.036;9.344;2024-01-30T01:11:08;0.70;99.90
46364;DHT22;32071;49.036;9.344;2024-01-30T01:13:34;0.70;99.90
46364;DHT22;32071;49.036;9.344;2024-01-30T01:16:00;0.70;99.90
46364;DHT22;32071;49.036;9.344;2024-01-30T01:18:25;0.60;99.90
46364;DHT22;32071;49.036;9.344;2024-01-30T01:20:52;0.60;99.90
46364;DHT22;32071;49.036;9.344;2024-01-30T01:23:18;0.60;99.90
46364;DHT22;32071;49.036;9.344;2024-01-30T01:25:44;0.60;99.90
46364;DHT22;32071;49.036;9.344;2024-01-30T01:28:09;0.60;99.90
46364;DHT22;32071;49.036;9.344;2024-01-30T01:30:35;0.60;99.90
46364;DHT22;32071;49.036;9.344;2024-01-30T01:33:01;0.60;99.90
46364;DHT22;32071;49.036;9.344;2024-01-30T01:35:27;0.60;99.90
46364;DHT22;32071;49.036;9.344;2024-01-30T01:37:54;0.60;99.90
46364;DHT22;32071;49.036;9.344;2024-01-30T01:40:25;0.60;99.90
46364;DHT22;32071;49.036;9.344;2024-01-30T01:42:51;0.60;99.90
46364;DHT22;32071;49.036;9.344;2024-01-30T01:45:21;0.60;99.90
46364;DHT22;32071;49.036;9.344;2024-01-30T01:47:55;0.60;99.90
46364;DHT22;32071;49.036;9.344;2024-01-30T01:50:21;0.50;99.90
46364;DHT22;32071;49.036;9.344;2024-01-30T01:52:47;0.50;99.90
46364;DHT22;32071;49.036;9.344;2024-01-30T01:55:14;0.50;99.90
46364;DHT22;32071;49.036;9.344;2024-01-30T01:57:41;0.50;99.90
46364;DHT22;32071;49.036;9.344;2024-01-30T02:00:08;0.50;99.90
46364;DHT22;32071;49.036;9.344;2024-01-30T02:02:36;0.50;99.90
46364;DHT22;32071;49.036;9.344;2024-01-30T02:05:02;0.50;99.90
46364;DHT22;32071;49.036;9.344;2024-01-30T02:07:30;0.50;99.90
46364;DHT22;32071;49.036;9.344;2024-01-30T02:09:56;0.50;99.90
46364;DHT22;32071;49.036;9.344;2024-01-30T02:12:21;0.50;99.90
46364;DHT22;32071;49.036;9.344;2024-01-30T02:14:48;0.50;99.90
46364;DHT22;32071;49.036;9.344;2024-01-30T02:17:15;0.50;99.90
46364;DHT22;32071;49.036;9.344;2024-01-30T02:19:41;0.50;99.90
46364;DHT22;32071;49.036;9.344;2024-01-30T02:22:07;0.50;99.90
46364;DHT22;32071;49.036;9.344;2024-01-30T02:24:33;0.50;99.90
46364;DHT22;32071;49.036;9.344;2024-01-30T02:26:58;0.50;99.90
46364;DHT22;32071;49.036;9.344;2024-01-30T02:29:24;0.50;99.90
46364;DHT22;32071;49.036;9.344;2024-01-30T02:31:50;0.40;99.90
46364;DHT22;32071;49.036;9.344;2024-01-30T02:34:16;0.40;99.90
46364;DHT22;32071;49.036;9.344;2024-01-30T02:36:45;0.40;99.90
46364;DHT22;32071;49.036;9.344;2024-01-30T02:39:11;0.40;99.90
46364;DHT22;32071;49.036;9.344;2024-01-30T02:41:36;0.40;99.90
46364;DHT22;32071;49.036;9.344;2024-01-30T02:44:03;0.30;99.90
46364;DHT22;32071;49.036;9.344;2024-01-30T02:46:29;0.30;99.90
46364;DHT22;32071;49.036;9.344;2024-01-30T02:48:54;0.30;99.90
46364;DHT22;32071;49.036;9.344;2024-01-30T02:51:20;0.30;99.90
46364;DHT22;32071;49.036;9.344;2024-01-30T02:53:45;0.20;99.90
46364;DHT22;32071;49.036;9.344;2024-01-30T02:56:11;0.20;99.90
46364;DHT22;32071;49.036;9.344;2024-01-30T02:58:39;0.20;99.90
46364;DHT22;32071;49.036;9.344;2024-01-30T03:01:05;0.20;99.90
46364;DHT22;32071;49.036;9.344;2024-01-30T03:03:31;0.20;99.90
46364;DHT22;32071;49.036;9.344;2024-01-30T03:05:57;0.10;99.90
46364;DHT22;32071;49.036;9.344;2024-01-30T03:08:22;0.10;99.90
46364;DHT22;32071;49.036;9.344;2024-01-30T03:10:48;0.10;99.90
46364;DHT22;32071;49.036;9.344;2024-01-30T03:13:14;0.10;99.90
46364;DHT22;32071;49.036;9.344;2024-01-30T03:15:39;0.10;99.90
46364;DHT22;32071;49.036;9.344;2024-01-30T03:18:05;0.00;99.90
46364;DHT22;32071;49.036;9.344;2024-01-30T03:20:31;0.10;99.90
46364;DHT22;32071;49.036;9.344;2024-01-30T03:22:57;0.00;99.90
46364;DHT22;32071;49.036;9.344;2024-01-30T03:25:22;-0.10;99.90
46364;DHT22;32071;49.036;9.344;2024-01-30T03:27:48;-0.10;99.90
46364;DHT22;32071;49.036;9.344;2024-01-30T03:30:14;-0.10;99.90
46364;DHT22;32071;49.036;9.344;2024-01-30T03:32:39;0.00;99.90
46364;DHT22;32071;49.036;9.344;2024-01-30T03:35:05;0.00;99.90
46364;DHT22;32071;49.036;9.344;2024-01-30T03:37:31;0.00;99.90
46364;DHT22;32071;49.036;9.344;2024-01-30T03:39:57;-0.10;99.90
46364;DHT22;32071;49.036;9.344;2024-01-30T03:42:22;0.00;99.90
46364;DHT22;32071;49.036;9.344;2024-01-30T03:44:48;-0.10;99.90
46364;DHT22;32071;49.036;9.344;2024-01-30T03:47:13;-0.10;99.90
46364;DHT22;32071;49.036;9.344;2024-01-30T03:49:40;-0.10;99.90
46364;DHT22;32071;49.036;9.344;2024-01-30T03:52:05;-0.10;99.90
46364;DHT22;32071;49.036;9.344;2024-01-30T03:54:31;-0.20;99.90
46364;DHT22;32071;49.036;9.344;2024-01-30T03:56:56;-0.20;99.90
46364;DHT22;32071;49.036;9.344;2024-01-30T03:59:22;-0.20;99.90
46364;DHT22;32071;49.036;9.344;2024-01-30T04:01:50;-0.20;99.90
46364;DHT22;32071;49.036;9.344;2024-01-30T04:04:19;-0.20;99.90
46364;DHT22;32071;49.036;9.344;2024-01-30T04:06:46;-0.20;99.90
46364;DHT22;32071;49.036;9.344;2024-01-30T04:09:12;-0.20;99.90
46364;DHT22;32071;49.036;9.344;2024-01-30T04:11:39;-0.20;99.90
46364;DHT22;32071;49.036;9.344;2024-01-30T04:14:04;-0.20;99.90
46364;DHT22;32071;49.036;9.344;2024-01-30T04:16:30;-0.20;99.90
46364;DHT22;32071;49.036;9.344;2024-01-30T04:18:56;-0.30;99.90
46364;DHT22;32071;49.036;9.344;2024-01-30T04:21:22;-0.30;99.90
46364;DHT22;32071;49.036;9.344;2024-01-30T04:23:48;-0.20;99.90
46364;DHT22;32071;49.036;9.344;2024-01-30T04:26:14;-0.30;99.90
46364;DHT22;32071;49.036;9.344;2024-01-30T04:28:41;-0.20;99.90
46364;DHT22;32071;49.036;9.344;2024-01-30T04:31:07;-0.20;99.90
46364;DHT22;32071;49.036;9.344;2024-01-30T04:33:32;-0.20;99.90
46364;DHT22;32071;49.036;9.344;2024-01-30T04:35:58;-0.30;99.90
46364;DHT22;32071;49.036;9.344;2024-01-30T04:38:24;-0.30;99.90
46364;DHT22;32071;49.036;9.344;2024-01-30T04:40:49;-0.30;99.90
46364;DHT22;32071;49.036;9.344;2024-01-30T04:43:15;-0.30;99.90
46364;DHT22;32071;49.036;9.344;2024-01-30T04:45:41;-0.30;99.90
46364;DHT22;32071;49.036;9.344;2024-01-30T04:48:07;-0.30;99.90
46364;DHT22;32071;49.036;9.344;2024-01-30T04:50:32;-0.30;99.90
46364;DHT22;32071;49.036;9.344;2024-01-30T04:52:58;-0.30;99.90
46364;DHT22;32071;49.036;9.344;2024-01-30T04:55:24;-0.30;99.90
46364;DHT22;32071;49.036;9.344;2024-01-30T04:57:49;-0.40;99.90
46364;DHT22;32071;49.036;9.344;2024-01-30T05:00:15;-0.40;99.90
46364;DHT22;32071;49.036;9.344;2024-01-30T05:02:41;-0.40;99.90
46364;DHT22;32071;49.036;9.344;2024-01-30T05:05:06;-0.30;99.90
46364;DHT22;32071;49.036;9.344;2024-01-30T05:07:33;-0.40;99.90
46364;DHT22;32071;49.036;9.344;2024-01-30T05:09:58;-0.30;99.90
46364;DHT22;32071;49.036;9.344;2024-01-30T05:12:24;-0.30;99.90
46364;DHT22;32071;49.036;9.344;2024-01-30T05:14:50;-0.30;99.90
46364;DHT22;32071;49.036;9.344;2024-01-30T05:17:15;-0.30;99.90
46364;DHT22;32071;49.036;9.344;2024-01-30T05:19:41;-0.30;99.90
46364;DHT22;32071;49.036;9.344;2024-01-30T05:22:06;-0.30;99.90
46364;DHT22;32071;49.036;9.344;2024-01-30T05:24:32;-0.30;99.90
46364;DHT22;32071;49.036;9.344;2024-01-30T05:26:57;-0.40;99.90
46364;DHT22;32071;49.036;9.344;2024-01-30T05:29:24;-0.40;99.90
46364;DHT22;32071;49.036;9.344;2024-01-30T05:31:49;-0.40;99.90
46364;DHT22;32071;49.036;9.344;2024-01-30T05:34:15;-0.40;99.90
46364;DHT22;32071;49.036;9.344;2024-01-30T05:36:41;-0.30;99.90
46364;DHT22;32071;49.036;9.344;2024-01-30T05:39:07;-0.40;99.90
46364;DHT22;32071;49.036;9.344;2024-01-30T05:41:32;-0.40;99.90
46364;DHT22;32071;49.036;9.344;2024-01-30T05:43:58;-0.40;99.90
46364;DHT22;32071;49.036;9.344;2024-01-30T05:46:23;-0.40;99.90
46364;DHT22;32071;49.036;9.344;2024-01-30T05:48:49;-0.50;99.90
46364;DHT22;32071;49.036;9.344;2024-01-30T05:51:15;-0.50;99.90
46364;DHT22;32071;49.036;9.344;2024-01-30T05:53:40;-0.50;99.90
46364;DHT22;32071;49.036;9.344;2024-01-30T05:56:06;-0.50;99.90
46364;DHT22;32071;49.036;9.344;2024-01-30T05:58:32;-0.40;99.90
46364;DHT22;32071;49.036;9.344;2024-01-30T06:00:57;-0.40;99.90
46364;DHT22;32071;49.036;9.344;2024-01-30T06:03:23;-0.50;99.90
46364;DHT22;32071;49.036;9.344;2024-01-30T06:05:49;-0.50;99.90
46364;DHT22;32071;49.036;9.344;2024-01-30T06:08:14;-0.50;99.90
46364;DHT22;32071;49.036;9.344;2024-01-30T06:10:40;-0.50;99.90
46364;DHT22;32071;49.036;9.344;2024-01-30T06:13:05;-0.50;99.90
46364;DHT22;32071;49.036;9.344;2024-01-30T06:15:31;-0.50;99.90
46364;DHT22;32071;49.036;9.344;2024-01-30T06:17:58;-0.60;99.90
46364;DHT22;32071;49.036;9.344;2024-01-30T06:20:23;-0.60;99.90
46364;DHT22;32071;49.036;9.344;2024-01-30T06:22:49;-0.60;99.90
46364;DHT22;32071;49.036;9.344;2024-01-30T06:25:15;-0.60;99.90
46364;DHT22;32071;49.036;9.344;2024-01-30T06:27:42;-0.60;99.90
46364;DHT22;32071;49.036;9.344;2024-01-30T06:30:08;-0.60;99.90
46364;DHT22;32071;49.036;9.344;2024-01-30T06:32:35;-0.60;99.90
46364;DHT22;32071;49.036;9.344;2024-01-30T06:35:01;-0.60;99.90
46364;DHT22;32071;49.036;9.344;2024-01-30T06:37:27;-0.60;99.90
46364;DHT22;32071;49.036;9.344;2024-01-30T06:39:52;-0.50;99.90
46364;DHT22;32071;49.036;9.344;2024-01-30T06:42:18;-0.50;99.90
46364;DHT22;32071;49.036;9.344;2024-01-30T06:44:44;-0.50;99.90
46364;DHT22;32071;49.036;9.344;2024-01-30T06:47:10;-0.60;99.90
46364;DHT22;32071;49.036;9.344;2024-01-30T06:49:35;-0.60;99.90
46364;DHT22;32071;49.036;9.344;2024-01-30T06:52:05;-0.60;99.90
46364;DHT22;32071;49.036;9.344;2024-01-30T06:54:30;-0.50;99.90
46364;DHT22;32071;49.036;9.344;2024-01-30T06:56:56;-0.50;99.90
46364;DHT22;32071;49.036;9.344;2024-01-30T06:59:22;-0.50;99.90
46364;DHT22;32071;49.036;9.344;2024-01-30T07:01:47;-0.50;99.90
46364;DHT22;32071;49.036;9.344;2024-01-30T07:04:13;-0.50;99.90
46364;DHT22;32071;49.036;9.344;2024-01-30T07:06:38;-0.50;99.90
46364;DHT22;32071;49.036;9.344;2024-01-30T07:09:04;-0.40;99.90
46364;DHT22;32071;49.036;9.344;2024-01-30T07:11:30;-0.40;99.90
46364;DHT22;32071;49.036;9.344;2024-01-30T07:13:56;-0.40;99.90
46364;DHT22;32071;49.036;9.344;2024-01-30T07:16:22;-0.30;99.90
46364;DHT22;32071;49.036;9.344;2024-01-30T07:18:48;-0.30;99.90
46364;DHT22;32071;49.036;9.344;2024-01-30T07:21:14;-0.20;99.90
46364;DHT22;32071;49.036;9.344;2024-01-30T07:23:40;-0.30;99.90
46364;DHT22;32071;49.036;9.344;2024-01-30T07:26:08;-0.20;99.90
46364;DHT22;32071;49.036;9.344;2024-01-30T07:28:34;-0.30;99.90
46364;DHT22;32071;49.036;9.344;2024-01-30T07:31:00;-0.30;99.90
46364;DHT22;32071;49.036;9.344;2024-01-30T07:33:26;-0.20;99.90
46364;DHT22;32071;49.036;9.344;2024-01-30T07:35:53;-0.20;99.90
46364;DHT22;32071;49.036;9.344;2024-01-30T07:38:19;-0.20;99.90
46364;DHT22;32071;49.036;9.344;2024-01-30T07:40:44;-0.20;99.90
46364;DHT22;32071;49.036;9.344;2024-01-30T07:43:10;-0.10;99.90
46364;DHT22;32071;49.036;9.344;2024-01-30T07:45:36;-0.10;99.90
46364;DHT22;32071;49.036;9.344;2024-01-30T07:48:03;0.00;99.90
46364;DHT22;32071;49.036;9.344;2024-01-30T07:50:28;0.00;99.90
46364;DHT22;32071;49.036;9.344;2024-01-30T07:52:56;0.00;99.90
46364;DHT22;32071;49.036;9.344;2024-01-30T07:55:22;0.10;99.90
46364;DHT22;32071;49.036;9.344;2024-01-30T07:57:53;0.10;99.90
46364;DHT22;32071;49.036;9.344;2024-01-30T08:00:20;0.20;99.90
46364;DHT22;32071;49.036;9.344;2024-01-30T08:02:46;0.30;99.90
46364;DHT22;32071;49.036;9.344;2024-01-30T08:05:12;0.40;99.90
46364;DHT22;32071;49.036;9.344;2024-01-30T08:07:39;0.50;99.90
46364;DHT22;32071;49.036;9.344;2024-01-30T08:10:06;0.60;99.90
46364;DHT22;32071;49.036;9.344;2024-01-30T08:12:31;0.60;99.90
46364;DHT22;32071;49.036;9.344;2024-01-30T08:14:57;0.70;99.90
46364;DHT22;32071;49.036;9.344;2024-01-30T08:17:22;0.80;99.90
46364;DHT22;32071;49.036;9.344;2024-01-30T08:19:48;0.90;99.90
46364;DHT22;32071;49.036;9.344;2024-01-30T08:22:13;1.10;99.90
46364;DHT22;32071;49.036;9.344;2024-01-30T08:24:40;1.10;99.90
46364;DHT22;32071;49.036;9.344;2024-01-30T08:27:06;1.20;99.90
46364;DHT22;32071;49.036;9.344;2024-01-30T08:29:35;1.30;99.90
46364;DHT22;32071;49.036;9.344;2024-01-30T08:32:00;1.40;99.90
46364;DHT22;32071;49.036;9.344;2024-01-30T08:34:26;1.50;99.90
46364;DHT22;32071;49.036;9.344;2024-01-30T08:36:52;1.60;99.90
46364;DHT22;32071;49.036;9.344;2024-01-30T08:39:18;1.70;99.90
46364;DHT22;32071;49.036;9.344;2024-01-30T08:41:43;1.80;99.90
46364;DHT22;32071;49.036;9.344;2024-01-30T08:44:09;1.90;99.90
46364;DHT22;32071;49.036;9.344;2024-01-30T08:46:36;1.90;99.90
46364;DHT22;32071;49.036;9.344;2024-01-30T08:49:02;2.00;99.90
46364;DHT22;32071;49.036;9.344;2024-01-30T08:51:29;2.10;99.90
46364;DHT22;32071;49.036;9.344;2024-01-30T08:53:55;2.10;99.90
46364;DHT22;32071;49.036;9.344;2024-01-30T08:56:20;2.20;99.90
46364;DHT22;32071;49.036;9.344;2024-01-30T08:58:46;2.40;99.90
46364;DHT22;32071;49.036;9.344;2024-01-30T09:01:11;2.50;99.90
46364;DHT22;32071;49.036;9.344;2024-01-30T09:03:37;2.60;99.90
46364;DHT22;32071;49.036;9.344;2024-01-30T09:06:11;2.60;99.90
46364;DHT22;32071;49.036;9.344;2024-01-30T09:08:37;2.70;99.90
46364;DHT22;32071;49.036;9.344;2024-01-30T09:11:12;2.90;99.90
46364;DHT22;32071;49.036;9.344;2024-01-30T09:13:38;3.00;99.90
46364;DHT22;32071;49.036;9.344;2024-01-30T09:16:04;3.00;99.90
46364;DHT22;32071;49.036;9.344;2024-01-30T09:18:30;3.10;99.90
46364;DHT22;32071;49.036;9.344;2024-01-30T09:20:56;3.30;99.90
46364;DHT22;32071;49.036;9.344;2024-01-30T09:23:21;3.30;99.90
46364;DHT22;32071;49.036;9.344;2024-01-30T09:25:47;3.40;99.90
46364;DHT22;32071;49.036;9.344;2024-01-30T09:28:13;3.50;99.90
46364;DHT22;32071;49.036;9.344;2024-01-30T09:30:38;3.50;99.90
46364;DHT22;32071;49.036;9.344;2024-01-30T09:33:05;3.70;99.90
46364;DHT22;32071;49.036;9.344;2024-01-30T09:35:30;3.80;99.90
46364;DHT22;32071;49.036;9.344;2024-01-30T09:37:56;3.90;99.90
46364;DHT22;32071;49.036;9.344;2024-01-30T09:40:22;3.90;99.90
46364;DHT22;32071;49.036;9.344;2024-01-30T09:42:50;4.00;99.90
46364;DHT22;32071;49.036;9.344;2024-01-30T09:45:17;4.20;99.90
46364;DHT22;32071;49.036;9.344;2024-01-30T09:47:45;4.30;99.90
46364;DHT22;32071;49.036;9.344;2024-01-30T09:50:12;4.40;99.90
46364;DHT22;32071;49.036;9.344;2024-01-30T09:52:38;4.50;99.90
46364;DHT22;32071;49.036;9.344;2024-01-30T09:55:05;4.70;99.90
46364;DHT22;32071;49.036;9.344;2024-01-30T09:57:31;4.90;99.90
46364;DHT22;32071;49.036;9.344;2024-01-30T09:59:57;5.00;99.90
46364;DHT22;32071;49.036;9.344;2024-01-30T10:02:23;5.20;99.90
46364;DHT22;32071;49.036;9.344;2024-01-30T10:04:50;5.30;99.90
46364;DHT22;32071;49.036;9.344;2024-01-30T10:07:16;5.50;99.90
46364;DHT22;32071;49.036;9.344;2024-01-30T10:09:42;5.60;99.90
46364;DHT22;32071;49.036;9.344;2024-01-30T10:12:09;5.70;99.90
46364;DHT22;32071;49.036;9.344;2024-01-30T10:14:39;5.90;99.90
46364;DHT22;32071;49.036;9.344;2024-01-30T10:17:05;6.10;99.90
46364;DHT22;32071;49.036;9.344;2024-01-30T10:19:31;6.20;99.90
46364;DHT22;32071;49.036;9.344;2024-01-30T10:21:57;6.30;99.90
46364;DHT22;32071;49.036;9.344;2024-01-30T10:24:26;6.40;99.90
46364;DHT22;32071;49.036;9.344;2024-01-30T10:26:53;6.50;99.90
46364;DHT22;32071;49.036;9.344;2024-01-30T10:29:19;6.50;99.90
46364;DHT22;32071;49.036;9.344;2024-01-30T10:31:44;6.50;99.90
46364;DHT22;32071;49.036;9.344;2024-01-30T10:34:10;6.60;99.90
46364;DHT22;32071;49.036;9.344;2024-01-30T10:36:40;6.70;99.90
46364;DHT22;32071;49.036;9.344;2024-01-30T10:39:08;6.70;99.90
46364;DHT22;32071;49.036;9.344;2024-01-30T10:41:42;6.90;99.90
46364;DHT22;32071;49.036;9.344;2024-01-30T10:44:09;6.90;99.90
46364;DHT22;32071;49.036;9.344;2024-01-30T10:46:36;6.90;99.90
46364;DHT22;32071;49.036;9.344;2024-01-30T10:49:03;6.90;99.90
46364;DHT22;32071;49.036;9.344;2024-01-30T10:51:31;7.00;99.90
46364;DHT22;32071;49.036;9.344;2024-01-30T10:53:57;7.20;99.90
46364;DHT22;32071;49.036;9.344;2024-01-30T10:56:24;7.30;99.90
46364;DHT22;32071;49.036;9.344;2024-01-30T10:58:53;7.30;99.90
46364;DHT22;32071;49.036;9.344;2024-01-30T11:01:21;7.40;99.90
46364;DHT22;32071;49.036;9.344;2024-01-30T11:03:50;7.40;99.90
46364;DHT22;32071;49.036;9.344;2024-01-30T11:06:16;7.50;99.90
46364;DHT22;32071;49.036;9.344;2024-01-30T11:08:44;7.60;99.90
46364;DHT22;32071;49.036;9.344;2024-01-30T11:11:10;7.70;99.90
46364;DHT22;32071;49.036;9.344;2024-01-30T11:13:36;7.80;99.90
46364;DHT22;32071;49.036;9.344;2024-01-30T11:16:05;7.80;99.90
46364;DHT22;32071;49.036;9.344;2024-01-30T11:18:33;7.90;99.90
46364;DHT22;32071;49.036;9.344;2024-01-30T11:20:59;8.00;99.90
46364;DHT22;32071;49.036;9.344;2024-01-30T11:23:27;8.10;99.90
46364;DHT22;32071;49.036;9.344;2024-01-30T11:25:54;8.20;99.90
46364;DHT22;32071;49.036;9.344;2024-01-30T11:28:21;8.30;99.90
46364;DHT22;32071;49.036;9.344;2024-01-30T11:30:47;8.50;99.90
46364;DHT22;32071;49.036;9.344;2024-01-30T11:33:27;8.60;99.90
46364;DHT22;32071;49.036;9.344;2024-01-30T11:35:53;8.60;99.90
46364;DHT22;32071;49.036;9.344;2024-01-30T11:38:19;8.70;99.90
46364;DHT22;32071;49.036;9.344;2024-01-30T11:40:46;8.90;99.90
46364;DHT22;32071;49.036;9.344;2024-01-30T11:43:13;8.90;99.90
46364;DHT22;32071;49.036;9.344;2024-01-30T11:45:38;9.00;99.90
46364;DHT22;32071;49.036;9.344;2024-01-30T11:48:05;9.10;99.90
46364;DHT22;32071;49.036;9.344;2024-01-30T11:50:32;9.20;99.90
46364;DHT22;32071;49.036;9.344;2024-01-30T11:52:59;9.30;99.90
46364;DHT22;32071;49.036;9.344;2024-01-30T11:55:25;9.30;99.90
46364;DHT22;32071;49.036;9.344;2024-01-30T11:57:51;9.40;99.90
46364;DHT22;32071;49.036;9.344;2024-01-30T12:00:18;9.30;99.90
46364;DHT22;32071;49.036;9.344;2024-01-30T12:02:48;9.30;99.90
46364;DHT22;32071;49.036;9.344;2024-01-30T12:05:14;9.40;99.90
46364;DHT22;32071;49.036;9.344;2024-01-30T12:07:40;9.50;99.90
46364;DHT22;32071;49.036;9.344;2024-01-30T12:10:06;9.50;99.90
46364;DHT22;32071;49.036;9.344;2024-01-30T12:12:35;9.60;99.90
46364;DHT22;32071;49.036;9.344;2024-01-30T12:15:01;9.70;99.90
46364;DHT22;32071;49.036;9.344;2024-01-30T12:17:29;9.80;99.90
46364;DHT22;32071;49.036;9.344;2024-01-30T12:22:38;9.80;99.90
46364;DHT22;32071;49.036;9.344;2024-01-30T12:25:07;9.90;99.90
46364;DHT22;32071;49.036;9.344;2024-01-30T12:27:34;9.90;99.90
46364;DHT22;32071;49.036;9.344;2024-01-30T12:29:59;9.90;99.90
46364;DHT22;32071;49.036;9.344;2024-01-30T12:32:25;9.80;99.90
46364;DHT22;32071;49.036;9.344;2024-01-30T12:34:54;9.80;99.90
46364;DHT22;32071;49.036;9.344;2024-01-30T12:37:20;9.70;99.90
46364;DHT22;32071;49.036;9.344;2024-01-30T12:39:48;9.70;99.90
46364;DHT22;32071;49.036;9.344;2024-01-30T12:42:14;9.70;99.90
46364;DHT22;32071;49.036;9.344;2024-01-30T12:44:40;9.70;99.90
46364;DHT22;32071;49.036;9.344;2024-01-30T12:47:08;9.70;99.90
46364;DHT22;32071;49.036;9.344;2024-01-30T12:49:34;9.80;99.90
46364;DHT22;32071;49.036;9.344;2024-01-30T12:52:00;9.90;99.90
46364;DHT22;32071;49.036;9.344;2024-01-30T12:54:25;10.00;99.90
46364;DHT22;32071;49.036;9.344;2024-01-30T12:56:51;10.20;99.90
46364;DHT22;32071;49.036;9.344;2024-01-30T12:59:16;10.20;99.90
46364;DHT22;32071;49.036;9.344;2024-01-30T13:01:42;10.30;99.90
46364;DHT22;32071;49.036;9.344;2024-01-30T13:04:08;10.40;99.90
46364;DHT22;32071;49.036;9.344;2024-01-30T13:06:33;10.50;99.90
46364;DHT22;32071;49.036;9.344;2024-01-30T13:08:59;10.60;99.90
46364;DHT22;32071;49.036;9.344;2024-01-30T13:11:24;10.50;99.90
46364;DHT22;32071;49.036;9.344;2024-01-30T13:13:51;10.60;99.90
46364;DHT22;32071;49.036;9.344;2024-01-30T13:16:17;10.60;99.90
46364;DHT22;32071;49.036;9.344;2024-01-30T13:18:43;10.60;99.90
46364;DHT22;32071;49.036;9.344;2024-01-30T13:21:09;10.70;99.90
46364;DHT22;32071;49.036;9.344;2024-01-30T13:23:34;10.70;99.90
46364;DHT22;32071;49.036;9.344;2024-01-30T13:26:00;10.80;99.90
46364;DHT22;32071;49.036;9.344;2024-01-30T13:28:26;10.90;99.90
46364;DHT22;32071;49.036;9.344;2024-01-30T13:30:51;11.00;99.90
46364;DHT22;32071;49.036;9.344;2024-01-30T13:33:17;11.00;99.90
46364;DHT22;32071;49.036;9.344;2024-01-30T13:35:43;11.10;99.90
46364;DHT22;32071;49.036;9.344;2024-01-30T13:38:09;11.10;99.90
46364;DHT22;32071;49.036;9.344;2024-01-30T13:40:34;11.20;99.90
46364;DHT22;32071;49.036;9.344;2024-01-30T13:43:00;11.30;99.90
46364;DHT22;32071;49.036;9.344;2024-01-30T13:45:25;11.30;99.90
46364;DHT22;32071;49.036;9.344;2024-01-30T13:47:51;11.30;99.90
46364;DHT22;32071;49.036;9.344;2024-01-30T13:50:16;11.30;99.90
46364;DHT22;32071;49.036;9.344;2024-01-30T13:52:43;11.20;99.90
46364;DHT22;32071;49.036;9.344;2024-01-30T13:55:09;11.30;99.90
46364;DHT22;32071;49.036;9.344;2024-01-30T13:57:36;11.30;99.90
46364;DHT22;32071;49.036;9.344;2024-01-30T14:00:03;11.30;99.90
46364;DHT22;32071;49.036;9.344;2024-01-30T14:02:30;11.30;99.90
46364;DHT22;32071;49.036;9.344;2024-01-30T14:04:56;11.20;99.90
46364;DHT22;32071;49.036;9.344;2024-01-30T14:07:22;11.20;99.90
46364;DHT22;32071;49.036;9.344;2024-01-30T14:09:48;11.20;99.90
46364;DHT22;32071;49.036;9.344;2024-01-30T14:12:14;11.00;99.90
46364;DHT22;32071;49.036;9.344;2024-01-30T14:14:40;10.90;99.90
46364;DHT22;32071;49.036;9.344;2024-01-30T14:17:06;10.90;99.90
46364;DHT22;32071;49.036;9.344;2024-01-30T14:19:35;10.90;99.90
46364;DHT22;32071;49.036;9.344;2024-01-30T14:22:01;10.80;99.90
46364;DHT22;32071;49.036;9.344;2024-01-30T14:24:27;10.80;99.90
46364;DHT22;32071;49.036;9.344;2024-01-30T14:26:53;10.80;99.90
46364;DHT22;32071;49.036;9.344;2024-01-30T14:29:18;10.70;99.90
46364;DHT22;32071;49.036;9.344;2024-01-30T14:31:44;10.70;99.90
46364;DHT22;32071;49.036;9.344;2024-01-30T14:34:09;10.70;99.90
46364;DHT22;32071;49.036;9.344;2024-01-30T14:36:39;10.70;99.90
46364;DHT22;32071;49.036;9.344;2024-01-30T14:39:05;10.60;99.90
46364;DHT22;32071;49.036;9.344;2024-01-30T14:41:32;10.60;99.90
46364;DHT22;32071;49.036;9.344;2024-01-30T14:43:57;10.50;99.90
46364;DHT22;32071;49.036;9.344;2024-01-30T14:46:23;10.50;99.90
46364;DHT22;32071;49.036;9.344;2024-01-30T14:48:49;10.40;99.90
46364;DHT22;32071;49.036;9.344;2024-01-30T14:51:17;10.40;99.90
46364;DHT22;32071;49.036;9.344;2024-01-30T14:53:43;10.40;99.90
46364;DHT22;32071;49.036;9.344;2024-01-30T14:56:08;10.30;99.90
46364;DHT22;32071;49.036;9.344;2024-01-30T14:58:34;10.30;99.90
46364;DHT22;32071;49.036;9.344;2024-01-30T15:00:59;10.20;99.90
46364;DHT22;32071;49.036;9.344;2024-01-30T15:03:27;10.20;99.90
46364;DHT22;32071;49.036;9.344;2024-01-30T15:05:53;10.10;99.90
46364;DHT22;32071;49.036;9.344;2024-01-30T15:08:20;10.10;99.90
46364;DHT22;32071;49.036;9.344;2024-01-30T15:10:45;10.00;99.90
46364;DHT22;32071;49.036;9.344;2024-01-30T15:13:11;9.90;99.90
46364;DHT22;32071;49.036;9.344;2024-01-30T15:15:37;9.80;99.90
46364;DHT22;32071;49.036;9.344;2024-01-30T15:18:03;9.70;99.90
46364;DHT22;32071;49.036;9.344;2024-01-30T15:20:29;9.60;99.90
46364;DHT22;32071;49.036;9.344;2024-01-30T15:22:56;9.50;99.90
46364;DHT22;32071;49.036;9.344;2024-01-30T15:25:22;9.40;99.90
46364;DHT22;32071;49.036;9.344;2024-01-30T15:27:48;9.30;99.90
46364;DHT22;32071;49.036;9.344;2024-01-30T15:30:14;9.20;99.90
46364;DHT22;32071;49.036;9.344;2024-01-30T15:32:39;9.10;99.90
46364;DHT22;32071;49.036;9.344;2024-01-30T15:35:05;9.00;99.90